Time;durP1;ratioP1;P1;durP2;ratioP2;P2;SDS_P1;SDS_P2;PMS_P1;PMS_P2;Temp;Humidity;BMP_temperature;BMP_pressure;BME280_temperature;BME280_humidity;BME280_pressure;Samples;Min_cycle;Max_cycle;Signal;HPM_P1;HPM_P2
2023/12/06 00:01:24;;;;;;;87.38;27.05;;;;;;;6.00;100.00;99910.38;8248485;28;20672;-54
2023/12/06 00:05:24;;;;;;;73.13;22.92;;;;;;;6.01;100.00;99907.56;8250052;28;20038;-57
2023/12/06 00:09:25;;;;;;;83.03;24.38;;;;;;;6.00;100.00;99921.09;8247227;28;20037;-55
2023/12/06 00:13:25;;;;;;;71.60;21.13;;;;;;;5.92;100.00;99913.69;8275590;28;20044;-55
2023/12/06 00:17:25;;;;;;;64.38;20.35;;;;;;;5.92;100.00;99923.56;8303133;28;20052;-56
2023/12/06 00:21:26;;;;;;;56.22;18.95;;;;;;;5.94;100.00;99917.09;8304596;28;20396;-55
2023/12/06 00:25:26;;;;;;;52.67;16.48;;;;;;;5.89;100.00;99919.28;8300870;28;20092;-56
2023/12/06 00:29:27;;;;;;;49.15;17.02;;;;;;;5.83;100.00;99913.59;8290983;28;20045;-56
2023/12/06 00:33:28;;;;;;;52.28;18.80;;;;;;;5.82;100.00;99915.41;8302177;28;20034;-54
2023/12/06 00:37:29;;;;;;;52.25;18.40;;;;;;;5.79;100.00;99920.13;8273282;28;20060;-55
2023/12/06 00:41:29;;;;;;;54.13;19.77;;;;;;;5.75;100.00;99922.22;8246485;28;20268;-56
2023/12/06 00:45:29;;;;;;;46.95;17.50;;;;;;;5.76;100.00;99933.78;8248477;28;20053;-55
2023/12/06 00:49:30;;;;;;;53.22;19.90;;;;;;;5.73;100.00;99937.59;8248857;28;20236;-54
2023/12/06 00:53:30;;;;;;;61.72;22.10;;;;;;;5.71;100.00;99946.75;8246139;28;20387;-56
2023/12/06 00:57:31;;;;;;;63.00;21.33;;;;;;;5.72;100.00;99945.75;8270068;28;20041;-59
2023/12/06 01:01:31;;;;;;;59.65;21.65;;;;;;;5.66;100.00;99946.25;8270319;28;20535;-54
2023/12/06 01:05:32;;;;;;;59.38;20.48;;;;;;;5.66;100.00;99954.28;8248697;28;20034;-56
2023/12/06 01:09:32;;;;;;;59.85;21.88;;;;;;;5.58;100.00;99962.13;8249330;28;20080;-55
2023/12/06 01:13:32;;;;;;;68.47;24.63;;;;;;;5.53;100.00;99967.84;8227026;28;20255;-56
2023/12/06 01:17:33;;;;;;;66.82;23.25;;;;;;;5.52;100.00;99967.97;8211052;28;20277;-54
2023/12/06 01:21:33;;;;;;;73.55;23.98;;;;;;;5.49;100.00;99976.25;8209209;28;20416;-56
2023/12/06 01:25:34;;;;;;;70.22;23.67;;;;;;;5.50;100.00;99986.00;8208952;28;20571;-54
2023/12/06 01:29:34;;;;;;;77.55;25.33;;;;;;;5.50;100.00;99991.34;8235379;28;20329;-56
2023/12/06 01:33:35;;;;;;;71.82;26.15;;;;;;;5.44;100.00;100002.56;8254617;28;20805;-55
2023/12/06 01:37:35;;;;;;;72.53;26.15;;;;;;;5.43;100.00;100004.38;8252179;28;20300;-57
2023/12/06 01:41:36;;;;;;;72.53;26.08;;;;;;;5.39;100.00;100000.25;8281082;28;20096;-59
2023/12/06 01:45:36;;;;;;;82.57;26.73;;;;;;;5.37;100.00;100017.41;8308038;28;20075;-57
2023/12/06 01:49:37;;;;;;;80.28;27.08;;;;;;;5.28;100.00;100018.13;8276413;28;20030;-58
2023/12/06 01:53:38;;;;;;;78.45;27.52;;;;;;;5.15;100.00;100018.22;8273248;28;20404;-56
2023/12/06 01:57:40;;;;;;;74.32;28.42;;;;;;;5.18;100.00;100022.47;8273835;28;20042;-57
2023/12/06 02:01:41;;;;;;;86.95;31.02;;;;;;;5.05;100.00;100032.44;8274661;28;20038;-58
2023/12/06 02:05:43;;;;;;;89.88;34.83;;;;;;;5.03;100.00;100034.41;8275423;28;20037;-58
2023/12/06 02:09:44;;;;;;;94.45;35.70;;;;;;;5.08;100.00;100042.94;8272036;28;20038;-58
2023/12/06 02:13:45;;;;;;;96.22;35.42;;;;;;;5.06;100.00;100043.03;8274740;28;20041;-62
2023/12/06 02:17:48;;;;;;;101.85;36.38;;;;;;;4.99;100.00;100051.66;8274137;28;20038;-55
2023/12/06 02:21:49;;;;;;;109.65;38.35;;;;;;;4.99;100.00;100070.41;8271727;28;20045;-57
2023/12/06 02:25:50;;;;;;;101.85;35.85;;;;;;;5.07;100.00;100063.53;8273147;28;20052;-56
2023/12/06 02:29:50;;;;;;;101.28;37.60;;;;;;;5.08;100.00;100061.69;8272463;28;20038;-57
2023/12/06 02:33:52;;;;;;;110.00;38.28;;;;;;;5.00;100.00;100072.13;8227009;28;20120;-55
2023/12/06 02:37:57;;;;;;;100.72;37.28;;;;;;;5.14;100.00;100077.28;8220598;28;20380;-55
2023/12/06 02:41:57;;;;;;;98.22;37.22;;;;;;;5.12;100.00;100071.22;8243041;28;20052;-55
2023/12/06 02:45:58;;;;;;;89.47;34.70;;;;;;;5.10;100.00;100084.72;8230641;28;20045;-55
2023/12/06 02:49:58;;;;;;;90.72;35.40;;;;;;;5.15;100.00;100079.84;8207237;28;20198;-55
2023/12/06 02:53:59;;;;;;;87.25;35.20;;;;;;;5.13;100.00;100078.25;8203434;28;20215;-56
2023/12/06 02:58:00;;;;;;;88.07;33.97;;;;;;;5.14;100.00;100079.97;8208897;28;20412;-54
2023/12/06 03:02:00;;;;;;;94.95;35.00;;;;;;;5.16;100.00;100080.72;8244523;28;20045;-56
2023/12/06 03:06:00;;;;;;;84.90;33.58;;;;;;;5.10;99.37;100081.19;8249315;28;20400;-56
2023/12/06 03:10:01;;;;;;;81.25;32.95;;;;;;;5.14;99.81;100074.59;8250234;28;20434;-55
2023/12/06 03:14:02;;;;;;;80.82;34.60;;;;;;;5.11;100.00;100078.38;8275218;28;20048;-57
2023/12/06 03:18:02;;;;;;;78.57;30.55;;;;;;;5.17;100.00;100080.59;8306409;28;20046;-59
2023/12/06 03:22:03;;;;;;;79.93;32.33;;;;;;;5.12;100.00;100089.97;8300516;28;20401;-58
2023/12/06 03:26:03;;;;;;;77.10;31.77;;;;;;;5.18;100.00;100081.44;8303817;28;20047;-57
2023/12/06 03:30:06;;;;;;;73.80;29.88;;;;;;;5.12;100.00;100098.00;8303786;28;20069;-56
2023/12/06 03:34:06;;;;;;;80.55;31.90;;;;;;;5.12;100.00;100100.69;8303091;28;20087;-59
2023/12/06 03:38:07;;;;;;;72.45;30.98;;;;;;;5.14;100.00;100106.75;8304503;28;20129;-57
2023/12/06 03:42:08;;;;;;;75.32;31.33;;;;;;;5.11;100.00;100112.34;8305397;28;20124;-59
2023/12/06 03:46:08;;;;;;;69.85;30.30;;;;;;;4.99;100.00;100114.13;8302514;28;20042;-58
2023/12/06 03:50:09;;;;;;;75.93;30.73;;;;;;;4.83;100.00;100112.72;8305121;28;20046;-59
2023/12/06 03:54:09;;;;;;;84.43;29.77;;;;;;;4.93;100.00;100127.97;8301799;28;20096;-57
2023/12/06 03:58:11;;;;;;;94.22;33.47;;;;;;;5.02;100.00;100129.09;8302451;28;20069;-59
2023/12/06 04:02:11;;;;;;;88.18;31.00;;;;;;;5.05;100.00;100124.38;8230995;28;20672;-56
2023/12/06 04:06:12;;;;;;;93.18;33.30;;;;;;;5.12;100.00;100130.16;8218371;28;20545;-56
2023/12/06 04:10:13;;;;;;;92.97;35.22;;;;;;;5.12;100.00;100119.44;8270423;28;20043;-55
2023/12/06 04:14:13;;;;;;;94.38;33.28;;;;;;;5.17;100.00;100128.81;8239952;28;20042;-57
2023/12/06 04:18:13;;;;;;;97.85;33.22;;;;;;;5.19;100.00;100123.34;8218904;28;20048;-57
2023/12/06 04:22:14;;;;;;;89.80;33.13;;;;;;;5.24;100.00;100129.19;8206304;28;20191;-58
2023/12/06 04:26:14;;;;;;;81.63;31.90;;;;;;;5.23;100.00;100132.84;8173953;28;20244;-58
2023/12/06 04:30:16;;;;;;;90.55;32.10;;;;;;;5.26;100.00;100135.28;8189128;28;20054;-58
2023/12/06 04:34:18;;;;;;;85.82;32.28;;;;;;;5.29;100.00;100143.09;8211970;28;20317;-58
2023/12/06 04:38:19;;;;;;;85.28;32.22;;;;;;;5.27;100.00;100134.31;8177286;28;20050;-57
2023/12/06 04:42:20;;;;;;;88.35;35.10;;;;;;;5.35;100.00;100148.00;8199868;28;20600;-57
2023/12/06 04:46:20;;;;;;;78.82;34.75;;;;;;;5.37;100.00;100151.44;8205850;28;20274;-58
2023/12/06 04:50:20;;;;;;;84.57;32.58;;;;;;;5.41;100.00;100153.75;8231671;28;20139;-58
2023/12/06 04:54:23;;;;;;;87.25;35.55;;;;;;;5.42;100.00;100162.63;8250908;28;20732;-57
2023/12/06 04:58:25;;;;;;;82.63;34.85;;;;;;;5.45;100.00;100175.81;8254920;28;20038;-57
2023/12/06 05:02:26;;;;;;;81.40;33.30;;;;;;;5.41;100.00;100166.28;8255085;28;20119;-58
2023/12/06 05:06:26;;;;;;;73.07;31.48;;;;;;;5.46;100.00;100173.00;8301585;28;20573;-54
2023/12/06 05:10:27;;;;;;;70.45;29.73;;;;;;;5.47;100.00;100179.22;8307358;28;20731;-56
2023/12/06 05:14:27;;;;;;;70.95;31.85;;;;;;;5.45;100.00;100192.75;8308496;28;20046;-56
2023/12/06 05:18:27;;;;;;;72.00;32.03;;;;;;;5.44;100.00;100191.06;8281316;28;20030;-57
2023/12/06 05:22:28;;;;;;;69.55;31.75;;;;;;;5.48;100.00;100188.97;8275707;28;20038;-55
2023/12/06 05:26:29;;;;;;;74.40;32.60;;;;;;;5.46;100.00;100210.53;8275216;28;20042;-55
2023/12/06 05:30:29;;;;;;;71.15;31.08;;;;;;;5.50;100.00;100205.81;8274184;28;20061;-57
2023/12/06 05:34:30;;;;;;;70.28;32.45;;;;;;;5.52;100.00;100211.91;8277424;28;20092;-55
2023/12/06 05:38:30;;;;;;;69.03;32.58;;;;;;;5.54;100.00;100223.34;8276924;28;20034;-56
2023/12/06 05:42:31;;;;;;;74.90;32.55;;;;;;;5.57;100.00;100220.44;8275575;28;20038;-56
2023/12/06 05:46:31;;;;;;;71.15;32.08;;;;;;;5.58;100.00;100230.22;8276190;28;20133;-55
2023/12/06 05:50:32;;;;;;;67.45;31.05;;;;;;;5.59;100.00;100232.78;8273854;28;20038;-55
2023/12/06 05:54:32;;;;;;;73.45;32.28;;;;;;;5.62;100.00;100237.06;8273573;28;20037;-55
2023/12/06 05:58:33;;;;;;;66.57;31.25;;;;;;;5.66;100.00;100231.34;8274676;28;20491;-55
2023/12/06 06:02:33;;;;;;;70.55;32.72;;;;;;;5.65;100.00;100234.97;8273025;28;20037;-56
2023/12/06 06:06:34;;;;;;;73.03;31.58;;;;;;;5.67;100.00;100240.22;8225270;28;20121;-58
2023/12/06 06:10:35;;;;;;;70.45;31.00;;;;;;;5.74;100.00;100238.81;8220805;28;20289;-57
2023/12/06 06:14:35;;;;;;;68.65;30.85;;;;;;;5.72;100.00;100244.28;8221070;28;20735;-58
2023/12/06 06:18:36;;;;;;;67.57;30.42;;;;;;;5.72;100.00;100249.66;8265976;28;20092;-54
2023/12/06 06:22:37;;;;;;;68.40;30.08;;;;;;;5.77;100.00;100257.34;8272439;28;20033;-55
2023/12/06 06:26:37;;;;;;;66.38;30.83;;;;;;;5.77;100.00;100251.97;8272258;28;20141;-60
2023/12/06 06:30:37;;;;;;;65.90;31.65;;;;;;;5.79;100.00;100255.38;8273075;28;20049;-59
2023/12/06 06:34:38;;;;;;;59.63;29.70;;;;;;;5.79;100.00;100258.06;8275269;28;20052;-57
2023/12/06 06:38:41;;;;;;;60.80;29.95;;;;;;;5.82;100.00;100266.78;8271892;28;20041;-58
2023/12/06 06:42:42;;;;;;;65.78;30.02;;;;;;;5.85;100.00;100271.03;8272007;28;20034;-59
2023/12/06 06:46:42;;;;;;;62.83;30.02;;;;;;;5.86;100.00;100270.09;8293272;28;20045;-60
2023/12/06 06:50:43;;;;;;;67.60;31.05;;;;;;;5.87;100.00;100274.47;8274952;28;20034;-60
2023/12/06 06:54:43;;;;;;;60.60;29.02;;;;;;;5.93;100.00;100274.00;8267550;28;20056;-60
2023/12/06 06:58:44;;;;;;;58.28;29.25;;;;;;;5.93;100.00;100279.38;8271208;28;20382;-59
2023/12/06 07:02:44;;;;;;;62.15;30.27;;;;;;;5.99;100.00;100284.25;8271987;28;20543;-60
2023/12/06 07:06:44;;;;;;;64.20;29.38;;;;;;;5.99;100.00;100289.63;8274047;28;20038;-59
2023/12/06 07:10:47;;;;;;;60.47;29.95;;;;;;;5.97;100.00;100291.56;8272914;28;20541;-59
2023/12/06 07:14:48;;;;;;;60.08;29.38;;;;;;;6.01;100.00;100299.25;8302639;28;20092;-58
2023/12/06 07:18:49;;;;;;;62.90;31.50;;;;;;;6.04;100.00;100295.50;8303101;28;20117;-59
2023/12/06 07:22:49;;;;;;;60.17;28.95;;;;;;;6.07;100.00;100300.59;8317785;28;20560;-59
2023/12/06 07:26:51;;;;;;;56.22;27.80;;;;;;;6.10;100.00;100304.91;8306440;28;20417;-58
2023/12/06 07:30:51;;;;;;;65.80;30.40;;;;;;;6.15;100.00;100308.94;8305108;28;20064;-60
2023/12/06 07:34:51;;;;;;;59.38;28.85;;;;;;;6.15;100.00;100306.25;8304606;28;20038;-60
2023/12/06 07:38:52;;;;;;;57.42;28.40;;;;;;;6.17;100.00;100309.69;8306036;28;20037;-60
2023/12/06 07:42:52;;;;;;;65.30;31.23;;;;;;;6.21;100.00;100310.28;8301446;28;20057;-60
2023/12/06 07:46:53;;;;;;;61.63;29.27;;;;;;;6.28;100.00;100323.13;8304813;28;20037;-59
2023/12/06 07:50:53;;;;;;;55.53;28.38;;;;;;;6.29;100.00;100318.63;8303445;28;20120;-59
2023/12/06 07:54:54;;;;;;;60.97;29.80;;;;;;;6.35;100.00;100324.38;8303035;28;20048;-59
2023/12/06 07:58:57;;;;;;;58.08;29.05;;;;;;;6.34;100.00;100327.19;8304430;28;20042;-59
2023/12/06 08:02:57;;;;;;;62.42;28.73;;;;;;;6.40;100.00;100332.91;8303699;28;20044;-59
2023/12/06 08:06:57;;;;;;;64.32;30.35;;;;;;;6.45;100.00;100336.09;8315374;28;20052;-56
2023/12/06 08:11:00;;;;;;;58.33;28.63;;;;;;;6.50;100.00;100341.13;8303437;28;20092;-58
2023/12/06 08:15:00;;;;;;;62.92;28.27;;;;;;;6.48;100.00;100351.97;8304911;28;20091;-59
2023/12/06 08:19:01;;;;;;;63.03;28.55;;;;;;;6.53;100.00;100355.19;8304018;28;20095;-60
2023/12/06 08:23:03;;;;;;;59.03;27.92;;;;;;;6.55;100.00;100357.72;8307181;28;20133;-60
2023/12/06 08:27:04;;;;;;;54.33;27.42;;;;;;;6.55;100.00;100361.25;8312645;28;20172;-60
2023/12/06 08:31:06;;;;;;;58.53;27.20;;;;;;;6.51;100.00;100367.84;8309473;28;20056;-59
2023/12/06 08:35:07;;;;;;;57.58;27.42;;;;;;;6.51;100.00;100367.00;8311115;28;20104;-59
2023/12/06 08:39:07;;;;;;;58.35;26.10;;;;;;;6.51;100.00;100370.53;8310921;28;20065;-60
2023/12/06 08:43:08;;;;;;;58.15;27.05;;;;;;;6.55;100.00;100380.06;8309509;28;20041;-59
2023/12/06 08:47:09;;;;;;;64.22;27.58;;;;;;;6.57;100.00;100375.44;8313234;28;20080;-60
2023/12/06 08:51:10;;;;;;;56.67;25.70;;;;;;;6.65;100.00;100373.00;8310176;28;20034;-59
2023/12/06 08:55:11;;;;;;;61.58;27.63;;;;;;;6.69;100.00;100382.53;8304680;28;20121;-60
2023/12/06 08:59:11;;;;;;;59.80;26.45;;;;;;;6.73;100.00;100378.63;8310854;28;20175;-58
2023/12/06 09:03:11;;;;;;;57.83;26.40;;;;;;;6.75;100.00;100382.06;8308713;28;20044;-58
2023/12/06 09:07:12;;;;;;;56.97;27.08;;;;;;;6.77;100.00;100373.88;8309563;28;20050;-60
2023/12/06 09:11:18;;;;;;;59.03;26.55;;;;;;;6.82;100.00;100390.47;8310338;28;20042;-59
2023/12/06 09:15:19;;;;;;;55.72;26.20;;;;;;;6.86;100.00;100379.38;8295784;28;20053;-59
2023/12/06 09:19:20;;;;;;;53.53;26.40;;;;;;;6.93;100.00;100386.00;8283550;28;20049;-60
2023/12/06 09:23:20;;;;;;;59.15;28.42;;;;;;;6.97;100.00;100394.66;8306514;28;20041;-60
2023/12/06 09:27:21;;;;;;;56.47;25.33;;;;;;;7.01;100.00;100390.75;8309216;28;20068;-58
2023/12/06 09:31:22;;;;;;;53.47;25.27;;;;;;;7.03;100.00;100395.03;8302789;28;20045;-54
2023/12/06 09:35:22;;;;;;;55.05;25.95;;;;;;;7.08;100.00;100406.25;8295295;28;20096;-58
2023/12/06 09:39:23;;;;;;;48.53;23.92;;;;;;;7.08;100.00;100410.81;8307743;28;20064;-57
2023/12/06 09:43:24;;;;;;;51.33;25.15;;;;;;;7.07;100.00;100409.94;8308085;28;20040;-58
2023/12/06 09:47:27;;;;;;;53.08;25.67;;;;;;;7.08;100.00;100408.13;8305341;28;20508;-57
2023/12/06 09:51:28;;;;;;;46.47;22.75;;;;;;;7.12;100.00;100413.13;8309321;28;20121;-57
2023/12/06 09:55:35;;;;;;;52.97;26.00;;;;;;;7.15;100.00;100415.56;8305497;28;20487;-57
2023/12/06 09:59:35;;;;;;;48.30;24.02;;;;;;;7.19;100.00;100427.78;8307770;28;20431;-55
2023/12/06 10:03:38;;;;;;;53.40;23.85;;;;;;;7.26;100.00;100415.56;8306930;28;20523;-55
2023/12/06 10:07:38;;;;;;;47.55;23.40;;;;;;;7.31;100.00;100424.13;8309144;28;20030;-55
2023/12/06 10:11:39;;;;;;;50.80;23.50;;;;;;;7.44;100.00;100424.84;8307073;28;20042;-57
2023/12/06 10:15:39;;;;;;;49.30;22.38;;;;;;;7.63;99.47;100441.22;8286591;28;20559;-55
2023/12/06 10:19:40;;;;;;;45.50;22.60;;;;;;;7.72;99.23;100445.84;8305779;28;20044;-56
2023/12/06 10:23:42;;;;;;;46.03;22.75;;;;;;;7.69;98.01;100445.25;8283071;28;20034;-56
2023/12/06 10:27:45;;;;;;;47.33;22.80;;;;;;;7.78;98.54;100445.34;8301421;28;20045;-56
2023/12/06 10:31:45;;;;;;;42.85;21.73;;;;;;;7.79;97.61;100455.16;8306582;28;20410;-57
2023/12/06 10:35:46;;;;;;;40.53;20.65;;;;;;;7.73;96.19;100442.19;8301823;28;20060;-56
2023/12/06 10:39:49;;;;;;;49.55;21.85;;;;;;;7.78;96.40;100434.59;8306765;28;20033;-56
2023/12/06 10:43:52;;;;;;;39.47;21.02;;;;;;;7.96;95.58;100438.47;8296415;28;20487;-55
2023/12/06 10:47:55;;;;;;;44.20;21.57;;;;;;;8.01;95.26;100452.41;8300937;28;20038;-56
2023/12/06 10:51:57;;;;;;;37.10;19.15;;;;;;;8.09;95.00;100449.94;8301897;28;20531;-56
2023/12/06 10:55:59;;;;;;;37.63;19.08;;;;;;;8.11;94.46;100447.09;8303768;28;20041;-56
2023/12/06 11:00:00;;;;;;;40.22;19.50;;;;;;;8.10;95.17;100448.09;8307250;28;20044;-56
2023/12/06 11:04:01;;;;;;;38.45;19.58;;;;;;;8.08;94.26;100448.22;8301138;28;20514;-57
2023/12/06 11:08:42;;;;;;;32.40;16.73;;;;;;;8.07;93.22;100449.22;8306496;28;20053;-57
2023/12/06 11:13:06;;;;;;;38.85;18.10;;;;;;;8.14;93.65;100454.09;8306807;28;20042;-57
2023/12/06 11:17:33;;;;;;;33.97;17.58;;;;;;;8.19;93.76;100459.94;8301990;28;20104;-58
2023/12/06 11:21:34;;;;;;;38.08;17.63;;;;;;;8.29;92.60;100459.09;8293016;28;20045;-58
2023/12/06 11:25:40;;;;;;;49.17;19.30;;;;;;;8.33;92.72;100451.63;8299857;28;20049;-59
2023/12/06 11:29:42;;;;;;;36.75;18.98;;;;;;;8.28;91.13;100448.44;8303717;28;20038;-58
2023/12/06 11:34:03;;;;;;;40.53;17.00;;;;;;;8.34;91.75;100448.78;8305767;28;20044;-57
2023/12/06 11:38:05;;;;;;;36.40;17.02;;;;;;;8.35;89.85;100436.19;8300775;28;20125;-58
2023/12/06 11:42:06;;;;;;;31.02;16.10;;;;;;;8.41;89.07;100436.50;8306412;28;20046;-58
2023/12/06 11:46:08;;;;;;;33.50;15.90;;;;;;;8.46;88.49;100442.38;8305037;28;20056;-57
2023/12/06 11:50:08;;;;;;;30.35;16.42;;;;;;;8.56;88.17;100437.06;8303952;28;20042;-57
2023/12/06 11:54:11;;;;;;;33.63;17.33;;;;;;;8.78;87.72;100437.78;8302239;28;20676;-56
2023/12/06 11:58:19;;;;;;;33.13;15.73;;;;;;;9.08;86.29;100434.28;8299104;28;20502;-57
2023/12/06 12:02:20;;;;;;;34.17;15.80;;;;;;;9.07;85.93;100438.84;8299964;28;20120;-58
2023/12/06 12:06:23;;;;;;;33.88;15.18;;;;;;;9.02;84.48;100440.22;8304780;28;20548;-57
2023/12/06 12:10:25;;;;;;;27.33;13.20;;;;;;;9.04;83.91;100449.03;8297601;28;20049;-58
2023/12/06 12:14:33;;;;;;;34.35;14.25;;;;;;;9.39;83.61;100454.91;8299571;28;20053;-58
2023/12/06 12:18:34;;;;;;;28.23;13.98;;;;;;;9.22;83.29;100452.84;8304145;28;20087;-55
2023/12/06 12:22:46;;;;;;;23.30;12.98;;;;;;;9.29;83.40;100444.09;8299845;28;20053;-53
2023/12/06 12:26:48;;;;;;;29.67;13.45;;;;;;;9.44;83.90;100452.66;8298164;28;20539;-53
2023/12/06 12:30:58;;;;;;;21.15;12.93;;;;;;;9.52;82.56;100450.16;8303240;28;20403;-53
2023/12/06 12:34:59;;;;;;;28.75;13.35;;;;;;;9.39;83.85;100444.97;8289749;28;20033;-54
2023/12/06 12:39:00;;;;;;;28.45;14.43;;;;;;;9.61;84.77;100446.66;8300412;28;20309;-55
2023/12/06 12:43:00;;;;;;;33.30;14.98;;;;;;;9.64;84.87;100454.47;8296687;28;20037;-54
2023/12/06 12:47:01;;;;;;;28.98;13.52;;;;;;;9.37;83.17;100451.50;8301909;28;20119;-54
2023/12/06 12:51:12;;;;;;;23.35;12.95;;;;;;;9.47;82.61;100455.09;8298660;28;20129;-54
2023/12/06 12:55:15;;;;;;;34.05;14.20;;;;;;;9.45;81.47;100454.38;8296989;28;20049;-55
2023/12/06 12:59:17;;;;;;;25.58;13.25;;;;;;;9.55;81.51;100455.28;8295996;28;20042;-55
2023/12/06 13:03:17;;;;;;;28.52;12.82;;;;;;;9.43;80.67;100453.66;8301858;28;20434;-56
2023/12/06 13:07:18;;;;;;;24.13;11.77;;;;;;;9.54;81.00;100459.81;8301684;28;20042;-55
2023/12/06 13:11:19;;;;;;;27.02;11.73;;;;;;;9.36;80.40;100456.03;8305612;28;20077;-55
2023/12/06 13:15:19;;;;;;;23.45;11.85;;;;;;;9.41;81.71;100471.81;8308815;28;20510;-57
2023/12/06 13:19:20;;;;;;;20.70;11.38;;;;;;;9.30;80.09;100469.22;8306135;28;20040;-56
2023/12/06 13:23:20;;;;;;;29.67;12.75;;;;;;;9.30;81.45;100482.72;8303606;28;20038;-56
2023/12/06 13:27:21;;;;;;;25.38;11.23;;;;;;;9.34;80.05;100481.44;8308115;28;20037;-56
2023/12/06 13:31:23;;;;;;;26.67;11.80;;;;;;;9.37;80.98;100487.41;8299883;28;20173;-56
2023/12/06 13:35:23;;;;;;;26.95;10.85;;;;;;;9.47;79.76;100484.78;8306938;28;20104;-56
2023/12/06 13:39:26;;;;;;;18.80;10.23;;;;;;;9.47;79.47;100471.28;8307318;28;20029;-57
2023/12/06 13:43:27;;;;;;;22.48;10.85;;;;;;;9.31;79.96;100479.00;8304520;28;20710;-57
2023/12/06 13:47:27;;;;;;;19.70;10.25;;;;;;;9.19;79.17;100491.72;8295730;28;20400;-57
2023/12/06 13:51:28;;;;;;;17.52;9.55;;;;;;;9.12;78.45;100490.53;8298199;28;20096;-58
2023/12/06 13:55:28;;;;;;;19.73;9.15;;;;;;;9.12;78.88;100495.91;8303130;28;20076;-57
2023/12/06 13:59:28;;;;;;;21.13;9.75;;;;;;;9.18;79.05;100494.56;8304131;28;20057;-57
2023/12/06 14:03:29;;;;;;;21.90;9.85;;;;;;;9.26;78.14;100492.03;8302133;28;20045;-57
2023/12/06 14:07:29;;;;;;;20.20;9.43;;;;;;;9.17;78.09;100492.81;8297844;28;20044;-57
2023/12/06 14:11:30;;;;;;;18.98;9.32;;;;;;;9.04;77.92;100497.56;8301159;28;20037;-57
2023/12/06 14:15:30;;;;;;;19.30;9.35;;;;;;;8.98;78.51;100503.50;8306599;28;20084;-57
2023/12/06 14:19:31;;;;;;;18.50;9.40;;;;;;;8.89;79.69;100505.13;8237069;28;20212;-57
2023/12/06 14:23:32;;;;;;;15.63;8.57;;;;;;;8.92;79.74;100509.41;8271365;28;20495;-57
2023/12/06 14:27:32;;;;;;;17.67;8.95;;;;;;;8.87;79.54;100503.53;8272702;28;20515;-58
2023/12/06 14:31:33;;;;;;;20.92;8.82;;;;;;;8.81;79.00;100514.88;8294798;28;20042;-56
2023/12/06 14:35:33;;;;;;;19.23;9.30;;;;;;;8.72;79.50;100510.25;8295431;28;20045;-56
2023/12/06 14:39:33;;;;;;;16.55;8.63;;;;;;;8.57;79.71;100519.63;8305185;28;20137;-57
2023/12/06 14:43:34;;;;;;;17.15;9.07;;;;;;;8.48;80.31;100531.16;8303559;28;20115;-56
2023/12/06 14:47:34;;;;;;;16.13;8.55;;;;;;;8.43;79.88;100528.84;8303686;28;20103;-56
2023/12/06 14:51:35;;;;;;;19.40;9.48;;;;;;;8.27;80.09;100530.22;8280272;28;20097;-56
2023/12/06 14:55:36;;;;;;;19.25;9.40;;;;;;;8.28;80.41;100537.31;8302799;28;20064;-56
2023/12/06 14:59:36;;;;;;;27.40;10.23;;;;;;;8.11;81.26;100537.81;8303427;28;20050;-56
2023/12/06 15:03:37;;;;;;;15.40;7.78;;;;;;;8.09;80.90;100552.25;8302571;28;20073;-56
2023/12/06 15:07:38;;;;;;;33.97;16.10;;;;;;;8.01;81.18;100554.72;8297297;28;20052;-55
2023/12/06 15:11:39;;;;;;;17.33;9.32;;;;;;;7.94;80.82;100558.84;8301106;28;20042;-55
2023/12/06 15:15:39;;;;;;;20.13;8.50;;;;;;;7.84;81.66;100568.66;8304111;28;20502;-58
2023/12/06 15:19:40;;;;;;;21.08;8.90;;;;;;;7.73;82.61;100571.34;8291294;28;20569;-54
2023/12/06 15:23:40;;;;;;;17.08;8.13;;;;;;;7.63;82.95;100578.41;8297083;28;20496;-56
2023/12/06 15:27:41;;;;;;;17.63;8.20;;;;;;;7.53;83.51;100585.50;8302538;28;20041;-57
2023/12/06 15:31:45;;;;;;;18.58;7.63;;;;;;;7.44;83.93;100590.75;8300659;28;20044;-59
2023/12/06 15:35:45;;;;;;;19.77;8.23;;;;;;;7.38;84.35;100592.06;8295054;28;20121;-57
2023/12/06 15:39:46;;;;;;;20.88;7.75;;;;;;;7.43;85.20;100606.03;8293940;28;20030;-57
2023/12/06 15:43:47;;;;;;;21.55;8.10;;;;;;;7.38;85.91;100610.06;8298766;28;20033;-57
2023/12/06 15:47:48;;;;;;;16.20;8.48;;;;;;;7.42;85.56;100614.22;8302740;28;20053;-58
2023/12/06 15:51:49;;;;;;;19.27;8.77;;;;;;;7.49;85.90;100624.38;8298125;28;20050;-58
2023/12/06 15:55:49;;;;;;;20.15;9.07;;;;;;;7.58;86.06;100615.59;8302099;28;20084;-56
2023/12/06 15:59:49;;;;;;;23.48;10.00;;;;;;;7.63;86.18;100626.84;8302509;28;20037;-58
2023/12/06 16:03:50;;;;;;;24.00;8.68;;;;;;;7.65;87.00;100622.22;8298784;28;20450;-56
2023/12/06 16:07:50;;;;;;;23.90;9.23;;;;;;;7.69;87.01;100634.44;8302630;28;20540;-55
2023/12/06 16:11:52;;;;;;;87.57;29.02;;;;;;;7.65;86.89;100638.34;8301516;28;20400;-57
2023/12/06 16:15:53;;;;;;;21.00;13.40;;;;;;;7.63;86.95;100640.28;8300512;28;20030;-57
2023/12/06 16:19:53;;;;;;;22.67;9.40;;;;;;;7.63;87.41;100651.06;8296101;28;20061;-57
2023/12/06 16:23:54;;;;;;;20.73;11.63;;;;;;;7.58;88.85;100647.88;8298763;28;20037;-56
2023/12/06 16:27:55;;;;;;;23.25;9.70;;;;;;;7.46;90.38;100647.97;8298322;28;20034;-58
2023/12/06 16:31:55;;;;;;;20.58;9.70;;;;;;;7.40;90.89;100657.38;8297434;28;20033;-57
2023/12/06 16:35:57;;;;;;;28.42;11.23;;;;;;;7.44;90.79;100664.22;8290585;28;20048;-57
2023/12/06 16:39:57;;;;;;;27.45;12.30;;;;;;;7.56;91.01;100663.28;8293774;28;20037;-57
2023/12/06 16:43:58;;;;;;;26.17;11.65;;;;;;;7.59;91.50;100668.41;8298881;28;20511;-54
2023/12/06 16:47:59;;;;;;;22.83;12.30;;;;;;;7.64;91.82;100674.31;8301407;28;20037;-56
2023/12/06 16:51:59;;;;;;;31.10;13.00;;;;;;;7.64;92.12;100679.69;8283144;28;20048;-57
2023/12/06 16:56:00;;;;;;;34.05;13.35;;;;;;;7.63;92.26;100686.03;8292604;28;20323;-57
2023/12/06 17:00:00;;;;;;;22.85;11.88;;;;;;;7.61;93.89;100696.06;8300232;28;20165;-55
2023/12/06 17:04:02;;;;;;;25.48;12.32;;;;;;;7.61;93.81;100706.84;8300555;28;20045;-56
2023/12/06 17:08:02;;;;;;;12.20;6.50;;;;;;;7.70;89.78;100716.03;8298911;28;20050;-55
2023/12/06 17:12:03;;;;;;;9.20;4.30;;;;;;;7.54;87.47;100726.25;8308777;28;20056;-56
2023/12/06 17:16:04;;;;;;;7.20;2.95;;;;;;;7.40;85.96;100718.34;8298593;28;20099;-56
2023/12/06 17:20:05;;;;;;;4.57;2.83;;;;;;;7.30;86.98;100728.09;8304710;28;20047;-57
2023/12/06 17:24:06;;;;;;;8.75;3.30;;;;;;;7.22;87.33;100733.19;8304716;28;20049;-56
2023/12/06 17:28:07;;;;;;;5.63;2.80;;;;;;;7.12;88.67;100754.53;8305818;28;20538;-55
2023/12/06 17:32:07;;;;;;;10.23;5.25;;;;;;;6.99;90.02;100745.66;8305721;28;20061;-57
2023/12/06 17:36:08;;;;;;;5.80;4.40;;;;;;;6.92;91.81;100747.06;8303983;28;20080;-56
2023/12/06 17:40:12;;;;;;;25.20;12.38;;;;;;;6.89;92.71;100752.66;8306679;28;20050;-55
2023/12/06 17:44:13;;;;;;;48.03;23.70;;;;;;;6.74;93.79;100751.06;8310361;28;20409;-55
2023/12/06 17:48:14;;;;;;;28.33;14.23;;;;;;;6.66;94.60;100761.53;8367525;28;20075;-56
2023/12/06 17:52:14;;;;;;;20.83;11.45;;;;;;;6.65;94.96;100765.16;8361935;28;20064;-56
2023/12/06 17:56:15;;;;;;;23.50;8.55;;;;;;;6.83;94.21;100758.47;8351141;28;20107;-56
2023/12/06 18:00:16;;;;;;;16.67;8.13;;;;;;;6.86;93.62;100760.94;8371926;28;20045;-56
2023/12/06 18:04:16;;;;;;;12.02;7.63;;;;;;;6.75;93.99;100763.56;8376711;28;20052;-55
2023/12/06 18:08:17;;;;;;;17.83;9.60;;;;;;;6.70;95.21;100765.69;8336175;28;20041;-57
2023/12/06 18:12:17;;;;;;;28.20;12.15;;;;;;;6.71;95.80;100780.84;8365805;28;20571;-58
2023/12/06 18:16:18;;;;;;;19.55;11.02;;;;;;;6.69;96.71;100781.94;8362837;28;20061;-56
2023/12/06 18:20:18;;;;;;;21.35;12.68;;;;;;;6.65;97.15;100794.72;8372192;28;20518;-58
2023/12/06 18:24:18;;;;;;;24.17;11.57;;;;;;;6.61;97.54;100782.47;8374501;28;20051;-58